createdAt,value
2023-03-06T00:00:58.843Z,100043.50
2023-03-06T00:04:01.565Z,100051.25
2023-03-06T00:07:04.408Z,100052.06
2023-03-06T00:10:07.679Z,100047.44
2023-03-06T00:13:13.332Z,100048.97
2023-03-06T00:16:16.205Z,100037.69
2023-03-06T00:19:19.950Z,100040.53
2023-03-06T00:22:22.940Z,100033.59
2023-03-06T00:25:25.819Z,100042.03
2023-03-06T00:28:31.526Z,100041.06
2023-03-06T00:31:36.007Z,100037.69
2023-03-06T00:34:39.826Z,100042.75
2023-03-06T00:37:45.015Z,100036.81
2023-03-06T00:40:48.389Z,100038.56
2023-03-06T00:43:51.199Z,100028.81
2023-03-06T00:46:53.947Z,100037.53
2023-03-06T00:49:56.931Z,100022.06
2023-03-06T00:52:59.697Z,100024.81
2023-03-06T00:56:02.434Z,100020.47
2023-03-06T00:59:05.541Z,100023.91
2023-03-06T01:02:09.197Z,100019.56
2023-03-06T01:05:14.726Z,100014.41
2023-03-06T01:08:17.844Z,100017.97
2023-03-06T01:11:21.843Z,100022.22
2023-03-06T01:14:24.968Z,100008.19
2023-03-06T01:17:27.786Z,100006.34
2023-03-06T01:20:31.349Z,100006.25
2023-03-06T01:23:35.029Z,100007.94
2023-03-06T01:26:38.073Z,100007.16
2023-03-06T01:29:41.624Z,100001.91
2023-03-06T01:32:44.429Z,99994.00
2023-03-06T01:35:47.720Z,99995.72
2023-03-06T01:38:52.296Z,99986.37
2023-03-06T01:41:55.556Z,99991.53
2023-03-06T01:45:09.622Z,99991.53
2023-03-06T01:48:13.827Z,99989.75
2023-03-06T01:51:17.148Z,99987.97
2023-03-06T01:54:38.086Z,99991.59
2023-03-06T01:57:45.138Z,99977.66
2023-03-06T02:00:48.081Z,99973.56
2023-03-06T02:03:51.554Z,99984.03
2023-03-06T02:06:54.514Z,99974.62
2023-03-06T02:09:59.822Z,99978.09
2023-03-06T02:13:04.981Z,99973.91
2023-03-06T02:16:09.621Z,99983.47
2023-03-06T02:19:30.391Z,99978.50
2023-03-06T02:22:49.711Z,99972.13
2023-03-06T02:25:53.805Z,99977.44
2023-03-06T02:28:59.216Z,99975.84
2023-03-06T02:32:02.764Z,99962.69
2023-03-06T02:35:07.172Z,99972.47
2023-03-06T02:38:13.654Z,99972.53
2023-03-06T02:41:17.609Z,99970.03
2023-03-06T02:44:23.077Z,99966.75
2023-03-06T02:47:26.096Z,99974.56
2023-03-06T02:50:30.654Z,99975.44
2023-03-06T02:53:33.397Z,99972.88
2023-03-06T02:56:36.119Z,99972.88
2023-03-06T02:59:39.046Z,99967.47
2023-03-06T03:02:42.841Z,99968.44
2023-03-06T03:05:45.522Z,99969.97
2023-03-06T03:08:49.994Z,99964.81
2023-03-06T03:11:53.632Z,99969.16
2023-03-06T03:14:56.874Z,99965.69
2023-03-06T03:17:59.909Z,99961.91
2023-03-06T03:21:08.064Z,99962.78
2023-03-06T03:24:10.714Z,99965.38
2023-03-06T03:27:14.177Z,99968.81
2023-03-06T03:30:17.932Z,99964.31
2023-03-06T03:33:21.210Z,99964.31
2023-03-06T03:36:24.609Z,99958.44
2023-03-06T03:39:27.737Z,99961.72
2023-03-06T03:42:30.694Z,99956.34
2023-03-06T03:45:34.976Z,99950.13
2023-03-06T03:48:38.818Z,99950.69
2023-03-06T03:51:42.029Z,99950.84
2023-03-06T03:54:45.526Z,99954.22
2023-03-06T03:57:49.056Z,99946.34
2023-03-06T04:00:52.038Z,99948.13
2023-03-06T04:03:54.971Z,99949.63
2023-03-06T04:07:01.065Z,99948.91
2023-03-06T04:10:06.903Z,99949.09
2023-03-06T04:13:11.003Z,99939.41
2023-03-06T04:16:15.156Z,99940.37
2023-03-06T04:19:19.287Z,99938.13
2023-03-06T04:22:22.530Z,99945.13
2023-03-06T04:25:25.020Z,99949.50
2023-03-06T04:28:29.792Z,99949.31
2023-03-06T04:31:34.254Z,99952.78
2023-03-06T04:34:43.786Z,99953.75
2023-03-06T04:37:46.858Z,99951.75
2023-03-06T04:40:50.254Z,99944.09
2023-03-06T04:43:54.007Z,99943.94
2023-03-06T04:46:57.297Z,99944.66
2023-03-06T04:50:01.665Z,99948.03
2023-03-06T04:53:05.416Z,99941.19
2023-03-06T04:56:08.728Z,99943.75
2023-03-06T04:59:12.263Z,99939.34
2023-03-06T05:02:14.829Z,99933.28
2023-03-06T05:05:18.659Z,99938.44
2023-03-06T05:08:28.832Z,99933.13
2023-03-06T05:11:35.457Z,99927.66
2023-03-06T05:14:38.373Z,99939.09
2023-03-06T05:17:44.790Z,99929.59
2023-03-06T05:20:49.053Z,99939.09
2023-03-06T05:23:53.328Z,99932.41
2023-03-06T05:26:56.139Z,99930.63
2023-03-06T05:30:06.843Z,99933.22
2023-03-06T05:33:12.757Z,99932.41
2023-03-06T05:36:21.968Z,99931.44
2023-03-06T05:39:26.158Z,99934.25
2023-03-06T05:42:31.013Z,99932.97
2023-03-06T05:45:37.425Z,99933.59
2023-03-06T05:48:41.221Z,99932.00
2023-03-06T05:51:45.484Z,99937.31
2023-03-06T05:54:54.549Z,99946.19
2023-03-06T05:57:58.564Z,99938.59
2023-03-06T06:01:15.361Z,99943.94
2023-03-06T06:04:18.755Z,99941.59
2023-03-06T06:07:22.510Z,99947.97
2023-03-06T06:10:26.375Z,99942.16
2023-03-06T06:13:29.662Z,99946.75
2023-03-06T06:16:32.908Z,99952.88
2023-03-06T06:19:36.045Z,99952.63
2023-03-06T06:22:39.937Z,99959.56
2023-03-06T06:25:45.728Z,99953.69
2023-03-06T06:28:55.023Z,99953.94
2023-03-06T06:31:59.953Z,99965.38
2023-03-06T06:35:06.119Z,99952.66
2023-03-06T06:38:09.857Z,99955.37
2023-03-06T06:44:40.777Z,99959.44
2023-03-06T06:47:44.837Z,99960.50
2023-03-06T06:50:56.030Z,99962.59
2023-03-06T06:54:02.019Z,99964.50
2023-03-06T06:57:05.182Z,99960.31
2023-03-06T07:00:18.127Z,99961.34
2023-03-06T07:03:25.009Z,99964.91
2023-03-06T07:06:28.752Z,99948.47
2023-03-06T07:09:31.926Z,99953.94
2023-03-06T07:12:42.217Z,99955.87
2023-03-06T07:15:45.632Z,99951.75
2023-03-06T07:18:58.158Z,99950.44
2023-03-06T07:22:13.073Z,99949.78
2023-03-06T07:25:19.759Z,99956.88
2023-03-06T07:28:27.174Z,99952.97
2023-03-06T07:31:30.463Z,99957.16
2023-03-06T07:34:34.914Z,99965.44
2023-03-06T07:37:40.899Z,99978.19
2023-03-06T07:40:48.730Z,99982.03
2023-03-06T07:43:52.709Z,99975.41
2023-03-06T07:46:58.993Z,99964.34
2023-03-06T07:50:05.456Z,99965.22
2023-03-06T07:53:10.816Z,99969.22
2023-03-06T07:56:15.925Z,99966.28
2023-03-06T07:59:19.461Z,99967.47
2023-03-06T08:02:24.477Z,99962.53
2023-03-06T08:05:28.980Z,99961.44
2023-03-06T08:08:33.647Z,99980.44
2023-03-06T08:11:37.936Z,99966.81
2023-03-06T08:14:42.772Z,99962.87
2023-03-06T08:17:48.984Z,99969.13
2023-03-06T08:21:12.009Z,99977.91
2023-03-06T08:24:17.684Z,99979.88
2023-03-06T08:27:20.812Z,99965.66
2023-03-06T08:30:31.487Z,99969.50
2023-03-06T08:33:35.926Z,99960.69
2023-03-06T08:36:40.223Z,99960.63
2023-03-06T08:39:43.110Z,99958.41
2023-03-06T08:42:49.913Z,99958.25
2023-03-06T08:45:54.971Z,99944.47
2023-03-06T08:49:00.398Z,99942.00
2023-03-06T08:52:07.153Z,99945.84
2023-03-06T08:55:13.262Z,99948.47
2023-03-06T08:58:24.725Z,99952.38
2023-03-06T09:01:31.002Z,99955.16
2023-03-06T09:04:38.116Z,99951.88
2023-03-06T09:07:45.096Z,99951.22
2023-03-06T09:10:49.377Z,99933.66
2023-03-06T09:13:54.280Z,99935.56
2023-03-06T09:16:57.161Z,99927.50
2023-03-06T09:20:00.245Z,99921.44
2023-03-06T09:23:06.695Z,99911.31
2023-03-06T09:26:12.647Z,99914.12
2023-03-06T09:29:17.144Z,99921.88
2023-03-06T09:32:23.019Z,99938.47
2023-03-06T09:35:28.615Z,99930.56
2023-03-06T09:38:32.942Z,99919.50
2023-03-06T09:41:40.540Z,99920.19
2023-03-06T09:44:50.746Z,99920.31
2023-03-06T09:48:17.169Z,99916.19
2023-03-06T09:51:48.385Z,99912.06
2023-03-06T09:55:01.084Z,99910.72
2023-03-06T09:58:24.874Z,99908.84
2023-03-06T10:01:33.312Z,99901.69
2023-03-06T10:04:50.929Z,99909.81
2023-03-06T10:08:03.567Z,99890.75
2023-03-06T10:11:12.439Z,99902.00
2023-03-06T10:14:40.775Z,99904.78
2023-03-06T10:17:50.658Z,99892.09
2023-03-06T10:21:18.717Z,99883.81
2023-03-06T10:24:53.948Z,99880.81
2023-03-06T10:28:02.385Z,99880.06
2023-03-06T10:31:23.317Z,99878.41
2023-03-06T10:34:33.392Z,99885.78
2023-03-06T10:37:38.137Z,99889.25
2023-03-06T10:40:53.824Z,99882.56
2023-03-06T10:44:01.259Z,99877.25
2023-03-06T10:47:30.658Z,99877.13
2023-03-06T10:50:34.926Z,99866.94
2023-03-06T10:53:51.658Z,99850.66
2023-03-06T10:56:56.130Z,99845.06
2023-03-06T11:00:07.865Z,99840.87
2023-03-06T11:03:21.156Z,99825.50
2023-03-06T11:06:35.683Z,99823.31
2023-03-06T11:09:39.631Z,99821.41
2023-03-06T11:13:00.616Z,99803.97
2023-03-06T11:16:26.987Z,99794.72
2023-03-06T11:19:33.054Z,99798.50
2023-03-06T11:22:40.029Z,99790.97
2023-03-06T11:25:50.701Z,99788.00
2023-03-06T11:29:04.467Z,99782.44
2023-03-06T11:32:15.352Z,99769.97
2023-03-06T11:35:25.996Z,99761.34
2023-03-06T11:38:53.884Z,99751.97
2023-03-06T11:42:24.703Z,99750.50
2023-03-06T11:45:36.692Z,99745.59
2023-03-06T11:48:49.949Z,99730.75
2023-03-06T11:52:01.596Z,99725.44
2023-03-06T11:55:04.989Z,99706.34
2023-03-06T11:58:33.458Z,99692.28
2023-03-06T12:02:21.756Z,99698.47
2023-03-06T12:05:37.768Z,99691.72
2023-03-06T12:09:04.537Z,99681.72
2023-03-06T12:12:21.070Z,99686.41
2023-03-06T12:15:51.718Z,99677.66
2023-03-06T12:19:09.662Z,99681.31
2023-03-06T12:22:57.656Z,99673.63
2023-03-06T12:27:12.718Z,99681.84
2023-03-06T12:30:16.851Z,99662.78
2023-03-06T12:33:33.902Z,99659.22
2023-03-06T12:36:59.725Z,99658.69
2023-03-06T12:40:29.673Z,99659.13
2023-03-06T12:43:58.878Z,99655.66
2023-03-06T12:47:12.893Z,99650.00
2023-03-06T12:50:40.228Z,99646.06
2023-03-06T12:53:45.585Z,99642.16
2023-03-06T12:56:55.553Z,99644.66
2023-03-06T13:00:01.889Z,99642.81
2023-03-06T13:03:20.480Z,99634.06
2023-03-06T13:06:50.743Z,99636.28
2023-03-06T13:10:33.913Z,99627.34
2023-03-06T13:13:48.947Z,99624.97
2023-03-06T13:16:52.704Z,99624.09
2023-03-06T13:20:15.236Z,99617.25
2023-03-06T13:23:30.287Z,99614.72
2023-03-06T13:26:39.740Z,99610.44
2023-03-06T13:29:50.852Z,99609.41
2023-03-06T13:32:54.907Z,99604.25
2023-03-06T13:36:00.512Z,99598.84
2023-03-06T13:39:16.000Z,99609.28
2023-03-06T13:42:28.701Z,99591.16
2023-03-06T13:45:53.673Z,99589.69
2023-03-06T13:49:10.921Z,99589.78
2023-03-06T13:52:39.946Z,99583.84
2023-03-06T13:55:56.173Z,99576.59
2023-03-06T13:59:18.653Z,99575.63
2023-03-06T14:03:17.895Z,99580.50
2023-03-06T14:06:34.889Z,99569.25
2023-03-06T14:09:47.690Z,99565.72
2023-03-06T14:13:05.769Z,99572.50
2023-03-06T14:16:27.782Z,99560.06
2023-03-06T14:19:45.699Z,99565.16
2023-03-06T14:23:24.714Z,99565.91
2023-03-06T14:26:40.605Z,99553.72
2023-03-06T14:29:48.793Z,99554.50
2023-03-06T14:32:56.146Z,99550.22
2023-03-06T14:36:13.763Z,99552.81
2023-03-06T14:39:33.513Z,99546.72
2023-03-06T14:42:44.329Z,99547.59
2023-03-06T14:46:00.874Z,99543.22
2023-03-06T14:49:23.617Z,99546.69
2023-03-06T14:52:43.619Z,99543.94
2023-03-06T14:56:06.684Z,99542.06
2023-03-06T14:59:17.697Z,99541.16
2023-03-06T15:02:26.967Z,99543.63
2023-03-06T15:05:45.050Z,99527.91
2023-03-06T15:09:13.865Z,99538.28
2023-03-06T15:12:34.056Z,99543.72
2023-03-06T15:16:06.611Z,99542.97
2023-03-06T15:19:21.002Z,99540.53
2023-03-06T15:22:44.935Z,99548.28
2023-03-06T15:25:55.125Z,99541.78
2023-03-06T15:29:17.564Z,99541.97
2023-03-06T15:32:42.735Z,99543.37
2023-03-06T15:36:05.836Z,99545.84
2023-03-06T15:39:36.630Z,99543.34
2023-03-06T15:42:49.708Z,99543.47
2023-03-06T15:46:00.165Z,99531.03
2023-03-06T15:49:06.716Z,99540.28
2023-03-06T15:52:11.914Z,99544.28
2023-03-06T15:55:17.207Z,99551.19
2023-03-06T15:58:35.657Z,99547.97
2023-03-06T16:01:46.703Z,99544.75
2023-03-06T16:04:51.677Z,99537.69
2023-03-06T16:08:05.691Z,99543.59
2023-03-06T16:11:26.033Z,99543.97
2023-03-06T16:14:34.758Z,99539.09
2023-03-06T16:17:45.605Z,99541.91
2023-03-06T16:20:49.676Z,99528.56
2023-03-06T16:24:02.703Z,99543.03
2023-03-06T16:27:25.686Z,99545.78
2023-03-06T16:30:34.710Z,99538.78
2023-03-06T16:33:43.149Z,99549.47
2023-03-06T16:36:49.756Z,99547.75
2023-03-06T16:39:54.646Z,99548.34
2023-03-06T16:43:13.723Z,99558.66
2023-03-06T16:46:24.748Z,99568.19
2023-03-06T16:49:52.218Z,99562.06
2023-03-06T16:53:01.957Z,99553.63
2023-03-06T16:56:05.669Z,99565.03
2023-03-06T16:59:16.044Z,99574.00
2023-03-06T17:02:38.298Z,99579.25
2023-03-06T17:05:49.978Z,99581.22
2023-03-06T17:09:01.107Z,99582.56
2023-03-06T17:12:07.781Z,99577.50
2023-03-06T17:15:18.876Z,99591.69
2023-03-06T17:18:33.547Z,99589.31
2023-03-06T17:21:50.816Z,99591.53
2023-03-06T17:24:56.696Z,99588.87
2023-03-06T17:28:07.708Z,99587.41
2023-03-06T17:31:27.702Z,99587.09
2023-03-06T17:34:38.719Z,99585.12
2023-03-06T17:37:42.790Z,99588.28
2023-03-06T17:40:52.781Z,99586.59
2023-03-06T17:43:57.893Z,99589.59
2023-03-06T17:47:08.733Z,99583.88
2023-03-06T17:50:26.619Z,99587.53
2023-03-06T17:53:39.324Z,99582.00
2023-03-06T17:56:52.671Z,99576.69
2023-03-06T18:00:06.190Z,99587.78
2023-03-06T18:03:21.299Z,99577.53
2023-03-06T18:06:36.670Z,99579.88
2023-03-06T18:09:44.913Z,99589.41
2023-03-06T18:13:03.571Z,99590.84
2023-03-06T18:16:09.034Z,99591.25
2023-03-06T18:19:28.857Z,99589.16
2023-03-06T18:22:39.970Z,99593.56
2023-03-06T18:25:47.854Z,99590.66
2023-03-06T18:29:01.771Z,99582.91
2023-03-06T18:32:11.759Z,99581.69
2023-03-06T18:35:18.968Z,99569.53
2023-03-06T18:38:30.817Z,99562.56
2023-03-06T18:41:38.871Z,99555.38
2023-03-06T18:44:48.230Z,99556.00
2023-03-06T18:48:02.667Z,99567.47
2023-03-06T18:51:10.964Z,99562.97
2023-03-06T18:54:21.961Z,99583.91
2023-03-06T18:57:32.007Z,99588.44
2023-03-06T19:00:50.752Z,99587.50
2023-03-06T19:03:56.835Z,99596.87
2023-03-06T19:07:02.967Z,99597.56
2023-03-06T19:10:13.307Z,99601.66
2023-03-06T19:13:21.695Z,99605.69
2023-03-06T19:16:27.628Z,99608.09
2023-03-06T19:19:31.222Z,99617.84
2023-03-06T19:22:35.500Z,99621.31
2023-03-06T19:25:59.043Z,99629.69
2023-03-06T19:29:01.950Z,99643.13
2023-03-06T19:32:11.770Z,99636.88
2023-03-06T19:35:16.822Z,99620.25
2023-03-06T19:38:22.023Z,99600.84
2023-03-06T19:41:28.148Z,99584.69
2023-03-06T19:44:33.826Z,99595.75
2023-03-06T19:47:39.698Z,99592.34
2023-03-06T19:50:50.247Z,99579.31
2023-03-06T19:54:00.975Z,99573.72
2023-03-06T19:57:09.726Z,99567.97
2023-03-06T20:00:16.712Z,99577.94
2023-03-06T20:03:25.713Z,99576.09
2023-03-06T20:06:40.644Z,99576.66
2023-03-06T20:10:01.212Z,99585.16
2023-03-06T20:13:06.621Z,99587.84
2023-03-06T20:16:17.554Z,99582.63
2023-03-06T20:19:23.129Z,99574.97
2023-03-06T20:22:40.537Z,99578.28
2023-03-06T20:25:49.581Z,99583.50
2023-03-06T20:29:05.335Z,99589.69
2023-03-06T20:32:10.644Z,99581.28
2023-03-06T20:35:19.233Z,99581.13
2023-03-06T20:38:32.583Z,99577.75
2023-03-06T20:41:46.938Z,99571.75
2023-03-06T20:44:51.111Z,99572.66
2023-03-06T20:47:56.395Z,99583.97
2023-03-06T20:51:09.684Z,99586.72
2023-03-06T20:54:17.658Z,99579.00
2023-03-06T20:57:21.590Z,99594.88
2023-03-06T21:00:26.017Z,99597.59
2023-03-06T21:03:32.909Z,99604.44
2023-03-06T21:06:44.535Z,99611.44
2023-03-06T21:09:59.105Z,99605.59
2023-03-06T21:13:04.626Z,99593.44
2023-03-06T21:16:14.423Z,99594.19
2023-03-06T21:19:20.229Z,99604.66
2023-03-06T21:22:24.951Z,99603.38
2023-03-06T21:25:29.581Z,99600.84
2023-03-06T21:28:36.626Z,99594.75
2023-03-06T21:31:43.037Z,99598.47
2023-03-06T21:34:48.808Z,99584.28
2023-03-06T21:37:53.133Z,99592.59
2023-03-06T21:41:08.153Z,99591.72
2023-03-06T21:44:12.611Z,99596.25
2023-03-06T21:47:15.350Z,99585.16
2023-03-06T21:50:19.797Z,99601.38
2023-03-06T21:53:23.241Z,99600.16
2023-03-06T21:56:33.776Z,99600.06
2023-03-06T21:59:43.825Z,99603.78
2023-03-06T22:02:52.624Z,99598.56
2023-03-06T22:06:17.732Z,99590.09
2023-03-06T22:09:20.392Z,99594.56
2023-03-06T22:12:25.373Z,99590.03
2023-03-06T22:15:29.140Z,99584.78
2023-03-06T22:18:35.580Z,99592.72
2023-03-06T22:21:39.273Z,99590.97
2023-03-06T22:24:54.515Z,99584.94
2023-03-06T22:27:59.305Z,99589.94
2023-03-06T22:31:11.404Z,99593.94
2023-03-06T22:34:15.570Z,99592.19
2023-03-06T22:37:18.999Z,99585.84
2023-03-06T22:40:23.268Z,99596.09
2023-03-06T22:43:26.365Z,99598.75
2023-03-06T22:46:31.942Z,99595.56
2023-03-06T22:49:37.628Z,99589.31
2023-03-06T22:52:41.692Z,99600.59
2023-03-06T22:55:46.620Z,99604.13
2023-03-06T22:58:50.114Z,99597.87
2023-03-06T23:01:53.141Z,99604.78
2023-03-06T23:04:56.225Z,99598.00
2023-03-06T23:07:59.600Z,99596.31
2023-03-06T23:11:02.371Z,99594.41
2023-03-06T23:14:24.294Z,99598.97
2023-03-06T23:17:45.705Z,99595.28
2023-03-06T23:21:15.446Z,99604.37
2023-03-06T23:24:36.717Z,99596.37
2023-03-06T23:27:41.118Z,99596.53
2023-03-06T23:30:44.208Z,99586.06
2023-03-06T23:33:47.341Z,99595.44
2023-03-06T23:36:50.101Z,99592.94
2023-03-06T23:39:55.568Z,99598.09
2023-03-06T23:42:59.131Z,99598.88
2023-03-06T23:46:02.432Z,99591.91
2023-03-06T23:49:07.476Z,99601.78
2023-03-06T23:52:10.414Z,99598.63
2023-03-06T23:55:13.551Z,99600.84
2023-03-06T23:58:18.928Z,99598.03
